Погода Рамотсвана 2 недели

Кгатленг, Ботсвана

24 июля-06 августа
  • 24июля
    Сегодня
    +5°
    +28°
    Ясно и безоблачно
    ВремяПогодаТемператураВлажностьДавлениеВетер, м/сВероятность осадков
    02:00Ясно и безоблачно+7°C26 %678 мм2.4 м/с2 %
    05:00Ясно и безоблачно+6°C27 %678 мм3.1 м/с2 %
    08:00Ясно и безоблачно+9°C23 %680 мм2.6 м/с2 %
    11:00Ясно и безоблачно+22°C10 %683 мм1.6 м/с2 %
    14:00Ясно и безоблачно+27°C5 %682 мм3.7 м/с2 %
    17:00Ясно и безоблачно+25°C5 %680 мм2.4 м/с2 %
    20:00Ясно и безоблачно+13°C12 %678 мм2.9 м/с2 %
    23:00Ясно и безоблачно+9°C14 %678 мм2.7 м/с2 %
  • 25июля
    Четверг
    +4°
    +26°
    Ясно и безоблачно
    ВремяПогодаТемператураВлажностьДавлениеВетер, м/сВероятность осадков
    02:00Ясно и безоблачно+7°C17 %678 мм2.4 м/с2 %
    05:00Ясно и безоблачно+6°C20 %677 мм2.8 м/с2 %
    08:00Ясно и безоблачно+9°C19 %679 мм2.6 м/с2 %
    11:00Ясно и безоблачно+22°C8 %682 мм1.9 м/с2 %
    14:00Ясно и безоблачно+26°C8 %681 мм1.4 м/с2 %
    17:00Ясно и безоблачно+24°C15 %679 мм0.6 м/с2 %
    20:00Ясно и безоблачно+17°C12 %678 мм0.5 м/с2 %
    23:00Ясно и безоблачно+7°C22 %676 мм2.0 м/с2 %
  • 26июля
    Пятница
    +8°
    +26°
    Ясно и безоблачно
    ВремяПогодаТемператураВлажностьДавлениеВетер, м/сВероятность осадков
    02:00Ясно и безоблачно+6°C25 %676 мм2.0 м/с2 %
    05:00Ясно и безоблачно+5°C31 %675 мм2.0 м/с2 %
    08:00Ясно и безоблачно+10°C25 %678 мм2.4 м/с2 %
    11:00Ясно и безоблачно+20°C46 %681 мм3.2 м/с2 %
    14:00Ясно и безоблачно+25°C21 %679 мм2.6 м/с2 %
    17:00Ясно и безоблачно+24°C17 %678 мм1.6 м/с2 %
    20:00Ясно и безоблачно+15°C28 %676 мм2.2 м/с2 %
    23:00Ясно и безоблачно+13°C29 %677 мм1.4 м/с2 %
  • 27июля
    Суббота
    +4°
    +26°
    Ясно и безоблачно
    ВремяПогодаТемператураВлажностьДавлениеВетер, м/сВероятность осадков
    02:00Ясно и безоблачно+11°C39 %676 мм0.9 м/с2 %
    05:00Ясно и безоблачно+9°C61 %675 мм2.3 м/с2 %
    08:00Ясно и безоблачно+11°C67 %677 мм1.2 м/с2 %
    11:00Ясно и безоблачно+22°C39 %680 мм0.9 м/с2 %
    14:00Ясно и безоблачно+26°C17 %678 мм1.5 м/с2 %
    17:00Ясно и безоблачно+25°C10 %677 мм2.1 м/с2 %
    20:00Ясно и безоблачно+15°C7 %677 мм3.3 м/с2 %
    23:00Ясно и безоблачно+10°C12 %677 мм2.9 м/с2 %
  • 28июля
    Воскресенье
    +2°
    +24°
    Ясно и безоблачно
    ВремяПогодаТемператураВлажностьДавлениеВетер, м/сВероятность осадков
    02:00Ясно и безоблачно+6°C17 %676 мм2.5 м/с2 %
    05:00Ясно и безоблачно+5°C25 %676 мм2.8 м/с2 %
    08:00Ясно и безоблачно+10°C24 %678 мм4.2 м/с2 %
    11:00Ясно и безоблачно+20°C22 %681 мм5.7 м/с2 %
    14:00Ясно и безоблачно+23°C13 %680 мм5.2 м/с2 %
    17:00Ясно и безоблачно+21°C15 %679 мм4.1 м/с2 %
    20:00Ясно и безоблачно+13°C26 %679 мм2.9 м/с2 %
    23:00Ясно и безоблачно+8°C39 %679 мм2.2 м/с2 %
Мы используем cookies
Соглашаюсь